Time;durP1;ratioP1;P1;durP2;ratioP2;P2;SDS_P1;SDS_P2;PMS_P1;PMS_P2;Temp;Humidity;BMP_temperature;BMP_pressure;BME280_temperature;BME280_humidity;BME280_pressure;Samples;Min_cycle;Max_cycle;Signal;HPM_P1;HPM_P2
2022/12/22 03:27:16;;;;;;;;;;;18.00;63.00;;;;;;4460871;32;19982;-73
2022/12/22 03:29:44;;;;;;;;;;;18.00;63.10;;;;;;4460900;32;20342;-73
2022/12/22 03:32:10;;;;;;;;;;;18.00;63.10;;;;;;4460605;32;19970;-73
2022/12/22 03:34:36;;;;;;;;;;;18.00;63.10;;;;;;4461011;32;20045;-73
2022/12/22 03:37:02;;;;;;;;;;;18.00;63.10;;;;;;4460832;32;19970;-73
2022/12/22 03:39:27;;;;;;;;;;;18.00;63.50;;;;;;4460554;32;20421;-73
2022/12/22 03:47:22;;;;;;;;;;;18.00;63.10;;;;;;4460708;32;20502;-73
2022/12/22 03:49:47;;;;;;;;;;;18.00;63.10;;;;;;4460925;32;19982;-73
2022/12/22 03:52:13;;;;;;;;;;;17.90;63.00;;;;;;4460101;32;19981;-73
2022/12/22 03:54:39;;;;;;;;;;;18.00;63.10;;;;;;4460565;32;19985;-73
2022/12/22 03:57:07;;;;;;;;;;;18.00;63.10;;;;;;4460705;32;20014;-73
2022/12/22 03:59:33;;;;;;;;;;;17.90;63.00;;;;;;4460480;32;19974;-73
2022/12/22 04:01:58;;;;;;;;;;;17.90;63.00;;;;;;4460833;32;19975;-73
2022/12/22 04:04:25;;;;;;;;;;;17.90;63.10;;;;;;4460540;32;20307;-73
2022/12/22 04:06:51;;;;;;;;;;;17.90;63.10;;;;;;4460545;32;19986;-73
2022/12/22 04:09:17;;;;;;;;;;;17.90;63.10;;;;;;4460724;32;20164;-73
2022/12/22 04:14:27;;;;;;;;;;;17.90;63.10;;;;;;4460560;32;20037;-73
2022/12/22 04:16:53;;;;;;;;;;;17.90;63.10;;;;;;4460520;32;19967;-73
2022/12/22 04:19:19;;;;;;;;;;;17.80;63.00;;;;;;4460690;32;19970;-73
2022/12/22 04:21:44;;;;;;;;;;;17.80;63.10;;;;;;4447318;32;20419;-73
2022/12/22 04:24:11;;;;;;;;;;;17.90;63.10;;;;;;4463199;32;20424;-73
2022/12/22 04:26:37;;;;;;;;;;;17.80;63.10;;;;;;4463214;32;20000;-73
2022/12/22 04:29:03;;;;;;;;;;;17.80;63.10;;;;;;4463443;32;19986;-73
2022/12/22 04:31:29;;;;;;;;;;;17.80;63.10;;;;;;4463305;32;20307;-73
2022/12/22 04:33:55;;;;;;;;;;;17.80;63.00;;;;;;4463010;32;19962;-73
2022/12/22 04:36:20;;;;;;;;;;;17.80;63.10;;;;;;4463604;32;20021;-73
2022/12/22 04:38:46;;;;;;;;;;;17.80;63.00;;;;;;4463164;32;20149;-73
2022/12/22 04:41:14;;;;;;;;;;;17.80;63.00;;;;;;4463334;32;19986;-73
2022/12/22 04:43:40;;;;;;;;;;;17.80;63.10;;;;;;4463100;32;20002;-73
2022/12/22 04:46:05;;;;;;;;;;;17.80;63.00;;;;;;4462872;32;19985;-73
2022/12/22 04:48:33;;;;;;;;;;;17.80;63.10;;;;;;4463095;32;20478;-73
2022/12/22 04:51:00;;;;;;;;;;;17.80;63.10;;;;;;4462770;32;19981;-73
2022/12/22 04:53:26;;;;;;;;;;;17.80;63.10;;;;;;4462553;32;19981;-73
2022/12/22 04:55:54;;;;;;;;;;;17.80;63.10;;;;;;4462830;32;20032;-73
2022/12/22 04:58:20;;;;;;;;;;;17.80;63.10;;;;;;4463072;32;20392;-73
2022/12/22 05:00:46;;;;;;;;;;;17.80;63.10;;;;;;4463068;32;20092;-74
2022/12/22 05:03:12;;;;;;;;;;;17.80;63.10;;;;;;4448766;32;20313;-73
2022/12/22 05:05:38;;;;;;;;;;;17.80;63.20;;;;;;4462906;32;19985;-73
2022/12/22 05:08:07;;;;;;;;;;;17.80;63.20;;;;;;4462563;32;20037;-73
2022/12/22 05:10:33;;;;;;;;;;;17.80;63.10;;;;;;4462780;32;19959;-73
2022/12/22 05:12:59;;;;;;;;;;;17.80;63.10;;;;;;4462517;32;19974;-73
2022/12/22 05:15:27;;;;;;;;;;;17.80;63.10;;;;;;4462953;32;20052;-73
2022/12/22 05:17:53;;;;;;;;;;;17.80;63.20;;;;;;4462692;32;19985;-73
2022/12/22 05:20:19;;;;;;;;;;;17.70;63.10;;;;;;4451998;32;19974;-73
2022/12/22 05:22:45;;;;;;;;;;;17.70;63.20;;;;;;4462341;32;20388;-73
2022/12/22 05:25:15;;;;;;;;;;;17.70;63.20;;;;;;4462671;32;19992;-73
2022/12/22 05:27:41;;;;;;;;;;;17.70;63.20;;;;;;4462409;32;20116;-73
2022/12/22 05:30:09;;;;;;;;;;;17.70;63.10;;;;;;4462091;32;20446;-73
2022/12/22 05:32:35;;;;;;;;;;;17.70;63.20;;;;;;4462204;32;20465;-73
2022/12/22 05:35:02;;;;;;;;;;;17.70;63.10;;;;;;4461986;32;20017;-73
2022/12/22 05:37:28;;;;;;;;;;;17.70;63.20;;;;;;4462125;32;20044;-73
2022/12/22 05:39:54;;;;;;;;;;;17.70;63.20;;;;;;4462345;32;20112;-73
2022/12/22 05:42:34;;;;;;;;;;;17.60;63.20;;;;;;4462121;32;19970;-73
2022/12/22 05:45:01;;;;;;;;;;;17.70;63.20;;;;;;4448284;32;20055;-73
2022/12/22 05:47:27;;;;;;;;;;;17.70;63.20;;;;;;4462037;32;20021;-73
2022/12/22 05:49:53;;;;;;;;;;;17.70;63.30;;;;;;4461970;32;20055;-73
2022/12/22 05:52:19;;;;;;;;;;;17.60;63.20;;;;;;4461667;32;19978;-73
2022/12/22 05:54:45;;;;;;;;;;;17.60;63.20;;;;;;4462039;32;20398;-73
2022/12/22 05:57:11;;;;;;;;;;;17.60;63.20;;;;;;4462112;32;20068;-73
2022/12/22 05:59:37;;;;;;;;;;;17.60;63.20;;;;;;4461792;32;20006;-73
2022/12/22 06:02:02;;;;;;;;;;;17.60;63.20;;;;;;4461902;32;20316;-73
2022/12/22 06:04:28;;;;;;;;;;;17.60;63.20;;;;;;4461865;32;20099;-74
2022/12/22 06:06:55;;;;;;;;;;;17.60;63.20;;;;;;4461907;32;19993;-73
2022/12/22 06:09:21;;;;;;;;;;;17.60;63.20;;;;;;4447771;32;19970;-73
2022/12/22 06:11:47;;;;;;;;;;;17.60;63.20;;;;;;4461753;32;20025;-73
2022/12/22 06:14:12;;;;;;;;;;;17.60;63.20;;;;;;4461860;32;20034;-73
2022/12/22 06:16:38;;;;;;;;;;;17.60;63.20;;;;;;4461504;32;20028;-73
2022/12/22 06:19:04;;;;;;;;;;;17.60;63.30;;;;;;4461616;32;20092;-73
2022/12/22 06:21:33;;;;;;;;;;;17.60;63.30;;;;;;4461576;32;20327;-74
2022/12/22 06:23:59;;;;;;;;;;;17.60;63.20;;;;;;4461535;32;20426;-73
2022/12/22 06:26:26;;;;;;;;;;;17.50;63.30;;;;;;4461431;32;19978;-73
2022/12/22 06:28:51;;;;;;;;;;;17.60;63.30;;;;;;4461539;32;19985;-73
2022/12/22 06:31:17;;;;;;;;;;;17.60;63.30;;;;;;4461555;32;20024;-73
2022/12/22 06:33:47;;;;;;;;;;;17.50;63.20;;;;;;4461099;32;19982;-73
2022/12/22 06:36:12;;;;;;;;;;;17.50;63.20;;;;;;4461470;32;20112;-73
2022/12/22 06:38:38;;;;;;;;;;;17.50;63.20;;;;;;4461483;32;19974;-73
2022/12/22 06:41:06;;;;;;;;;;;17.50;63.30;;;;;;4461245;32;19986;-73
2022/12/22 06:43:32;;;;;;;;;;;17.50;63.30;;;;;;4461353;32;20403;-73
2022/12/22 06:45:58;;;;;;;;;;;17.50;63.30;;;;;;4461039;32;20023;-73
2022/12/22 06:48:24;;;;;;;;;;;17.50;63.30;;;;;;4461471;32;19970;-73
2022/12/22 06:50:50;;;;;;;;;;;17.50;63.30;;;;;;4461012;32;19985;-73
2022/12/22 06:53:17;;;;;;;;;;;17.50;63.30;;;;;;4460865;32;20080;-73
2022/12/22 06:55:45;;;;;;;;;;;17.50;63.30;;;;;;4461264;32;19970;-73
2022/12/22 06:58:11;;;;;;;;;;;17.50;63.30;;;;;;4461054;32;19980;-73
2022/12/22 07:00:37;;;;;;;;;;;17.50;63.30;;;;;;4461248;32;20462;-73
2022/12/22 07:03:03;;;;;;;;;;;17.50;63.30;;;;;;4460977;32;20285;-74
2022/12/22 07:05:32;;;;;;;;;;;17.50;63.30;;;;;;4461191;32;19993;-74
2022/12/22 07:08:04;;;;;;;;;;;17.50;63.30;;;;;;4461046;32;19986;-74
2022/12/22 07:13:20;;;;;;;;;;;17.50;63.40;;;;;;4461017;32;19986;-73
2022/12/22 07:15:46;;;;;;;;;;;17.40;63.30;;;;;;4461101;32;20530;-73
2022/12/22 07:18:12;;;;;;;;;;;17.40;63.30;;;;;;4460738;32;19970;-73
2022/12/22 07:20:43;;;;;;;;;;;17.40;63.30;;;;;;4461092;32;19986;-73
2022/12/22 07:23:08;;;;;;;;;;;17.40;63.30;;;;;;4460543;32;19966;-73
2022/12/22 07:25:34;;;;;;;;;;;17.40;63.30;;;;;;4460994;32;19971;-73
2022/12/22 07:28:01;;;;;;;;;;;17.40;63.30;;;;;;4460838;32;20330;-73
2022/12/22 07:30:27;;;;;;;;;;;17.40;63.30;;;;;;4460445;32;20406;-73
2022/12/22 07:32:52;;;;;;;;;;;17.40;63.40;;;;;;4460858;32;20025;-73
2022/12/22 07:35:18;;;;;;;;;;;17.40;63.30;;;;;;4460570;32;20029;-73
2022/12/22 07:37:46;;;;;;;;;;;17.40;63.30;;;;;;4460576;32;20319;-72
2022/12/22 07:40:11;;;;;;;;;;;17.40;63.30;;;;;;4446818;32;19966;-73
2022/12/22 07:42:43;;;;;;;;;;;17.40;63.30;;;;;;4460644;32;20028;-73
2022/12/22 07:45:17;;;;;;;;;;;17.40;63.50;;;;;;4460814;32;19993;-73
2022/12/22 07:47:43;;;;;;;;;;;17.40;63.70;;;;;;4460869;32;19985;-73
2022/12/22 07:50:31;;;;;;;;;;;17.50;63.70;;;;;;4446677;32;19974;-73
2022/12/22 07:52:57;;;;;;;;;;;17.50;63.40;;;;;;4446054;32;19986;-73
2022/12/22 07:55:24;;;;;;;;;;;17.60;62.90;;;;;;4460637;32;20383;-73
2022/12/22 07:57:49;;;;;;;;;;;17.70;62.60;;;;;;4462878;32;20046;-73
2022/12/22 08:00:16;;;;;;;;;;;17.90;62.50;;;;;;4463630;32;19979;-73
2022/12/22 08:02:44;;;;;;;;;;;18.00;62.20;;;;;;4463590;32;19990;-72
2022/12/22 08:05:10;;;;;;;;;;;18.20;61.90;;;;;;4463846;32;19974;-73
2022/12/22 08:07:47;;;;;;;;;;;18.30;61.50;;;;;;4463627;32;20096;-72
2022/12/22 08:10:13;;;;;;;;;;;18.50;61.30;;;;;;4463668;32;19986;-73
2022/12/22 08:12:38;;;;;;;;;;;18.70;61.00;;;;;;4449589;32;19977;-73
2022/12/22 08:15:05;;;;;;;;;;;18.80;60.60;;;;;;4463566;32;20160;-72
2022/12/22 08:17:35;;;;;;;;;;;19.00;60.30;;;;;;4463648;32;19982;-72
2022/12/22 08:20:01;;;;;;;;;;;19.10;60.00;;;;;;4463176;32;20056;-73
2022/12/22 08:22:28;;;;;;;;;;;19.20;59.60;;;;;;4463169;32;20001;-73
2022/12/22 08:24:57;;;;;;;;;;;19.30;59.40;;;;;;4447421;32;20577;-72
2022/12/22 08:27:28;;;;;;;;;;;19.40;59.20;;;;;;4449273;32;20502;-73
2022/12/22 08:29:57;;;;;;;;;;;19.50;59.10;;;;;;4450331;32;20167;-72
2022/12/22 08:32:23;;;;;;;;;;;19.50;59.00;;;;;;4449291;32;19982;-73
2022/12/22 08:34:50;;;;;;;;;;;19.50;58.90;;;;;;4456299;32;20009;-72
2022/12/22 08:37:17;;;;;;;;;;;19.60;59.00;;;;;;4462981;32;19989;-73
2022/12/22 08:39:45;;;;;;;;;;;19.60;58.90;;;;;;4449271;32;20025;-74
2022/12/22 08:42:13;;;;;;;;;;;19.60;58.90;;;;;;4462886;32;19988;-73
2022/12/22 08:44:39;;;;;;;;;;;19.60;58.90;;;;;;4457944;32;20037;-73
2022/12/22 08:47:07;;;;;;;;;;;19.60;59.00;;;;;;4444136;32;20468;-72
2022/12/22 08:49:33;;;;;;;;;;;19.60;59.90;;;;;;4448653;32;19982;-73
2022/12/22 08:51:58;;;;;;;;;;;19.60;59.00;;;;;;4458224;32;19970;-73
2022/12/22 08:54:24;;;;;;;;;;;19.60;59.00;;;;;;4459876;32;20187;-73
2022/12/22 08:56:50;;;;;;;;;;;19.60;59.00;;;;;;4460717;32;19967;-73
2022/12/22 08:59:16;;;;;;;;;;;19.60;59.00;;;;;;4460218;32;19995;-73
2022/12/22 09:01:45;;;;;;;;;;;19.60;58.90;;;;;;4460569;32;19962;-73
2022/12/22 09:04:12;;;;;;;;;;;19.60;58.90;;;;;;4461512;32;20063;-73
2022/12/22 09:06:38;;;;;;;;;;;19.70;58.90;;;;;;4461271;32;20453;-73
2022/12/22 09:09:05;;;;;;;;;;;19.70;58.90;;;;;;4446921;32;20435;-73
2022/12/22 09:11:30;;;;;;;;;;;19.70;58.90;;;;;;4443888;32;20005;-73
2022/12/22 09:14:09;;;;;;;;;;;19.70;58.90;;;;;;4458533;32;20001;-74
2022/12/22 09:16:35;;;;;;;;;;;19.70;58.90;;;;;;4459183;32;20108;-73
2022/12/22 09:19:02;;;;;;;;;;;19.70;58.80;;;;;;4447074;32;19988;-74
2022/12/22 09:21:32;;;;;;;;;;;19.70;58.80;;;;;;4446963;32;20084;-73
2022/12/22 09:23:58;;;;;;;;;;;19.70;58.90;;;;;;4461052;32;20471;-73
2022/12/22 09:26:25;;;;;;;;;;;19.70;58.80;;;;;;4461605;32;20032;-74
2022/12/22 09:28:51;;;;;;;;;;;19.70;58.80;;;;;;4458235;32;20297;-72
2022/12/22 09:31:18;;;;;;;;;;;19.70;58.80;;;;;;4460172;32;20041;-73
2022/12/22 09:33:44;;;;;;;;;;;19.80;58.90;;;;;;4457431;32;20328;-73
2022/12/22 09:36:12;;;;;;;;;;;19.80;58.90;;;;;;4448390;32;19962;-75
2022/12/22 09:38:41;;;;;;;;;;;19.80;58.90;;;;;;4462389;32;20107;-73
2022/12/22 09:41:12;;;;;;;;;;;19.80;58.80;;;;;;4462405;32;20499;-75
2022/12/22 09:43:38;;;;;;;;;;;19.80;58.70;;;;;;4452327;32;20029;-74
2022/12/22 09:46:04;;;;;;;;;;;19.80;58.70;;;;;;4462110;32;19966;-74
2022/12/22 09:48:37;;;;;;;;;;;19.80;58.60;;;;;;4462433;32;19988;-74
2022/12/22 09:51:04;;;;;;;;;;;19.80;58.60;;;;;;4461940;32;20021;-73
2022/12/22 09:53:30;;;;;;;;;;;19.80;58.60;;;;;;4461508;32;19970;-74
2022/12/22 09:55:58;;;;;;;;;;;19.80;58.60;;;;;;4461927;32;20033;-73
2022/12/22 09:58:31;;;;;;;;;;;19.80;58.70;;;;;;4462136;32;19975;-74
2022/12/22 10:01:07;;;;;;;;;;;19.80;58.70;;;;;;4461941;32;19989;-73
2022/12/22 10:03:51;;;;;;;;;;;19.80;58.90;;;;;;4461960;32;19978;-68
2022/12/22 10:06:29;;;;;;;;;;;19.80;58.90;;;;;;4461743;32;20103;-73
2022/12/22 10:08:55;;;;;;;;;;;19.80;58.90;;;;;;4462026;32;19974;-74
2022/12/22 10:11:20;;;;;;;;;;;19.80;58.90;;;;;;4461447;32;19978;-73
2022/12/22 10:13:46;;;;;;;;;;;19.80;58.90;;;;;;4461907;32;19981;-73
2022/12/22 10:16:19;;;;;;;;;;;19.80;58.90;;;;;;4461599;32;19970;-73
2022/12/22 10:18:56;;;;;;;;;;;19.80;59.00;;;;;;4461643;32;19978;-70
2022/12/22 10:21:23;;;;;;;;;;;19.70;58.90;;;;;;4447511;32;19978;-72
2022/12/22 10:23:49;;;;;;;;;;;19.70;59.00;;;;;;4461662;32;20014;-72
2022/12/22 10:26:19;;;;;;;;;;;19.70;59.00;;;;;;4460778;32;20055;-71
2022/12/22 10:28:53;;;;;;;;;;;19.70;58.90;;;;;;4456730;32;20226;-72
2022/12/22 10:31:22;;;;;;;;;;;19.80;59.10;;;;;;4459300;32;20422;-72
2022/12/22 10:33:49;;;;;;;;;;;19.80;59.10;;;;;;4457934;32;20013;-73
2022/12/22 10:36:19;;;;;;;;;;;19.80;59.10;;;;;;4455509;32;19970;-72
2022/12/22 10:38:53;;;;;;;;;;;19.80;59.10;;;;;;4446455;32;19990;-72
2022/12/22 10:41:20;;;;;;;;;;;19.80;59.10;;;;;;4456349;32;19990;-71
2022/12/22 10:44:00;;;;;;;;;;;19.80;59.10;;;;;;4446261;32;20097;-72
2022/12/22 10:46:49;;;;;;;;;;;19.80;59.10;;;;;;4446336;32;19989;-72
2022/12/22 10:49:24;;;;;;;;;;;19.80;59.20;;;;;;4435980;32;19993;-72
2022/12/22 10:51:54;;;;;;;;;;;19.80;59.20;;;;;;4446049;32;20042;-71
2022/12/22 10:54:25;;;;;;;;;;;19.80;59.30;;;;;;4445641;32;20104;-71
2022/12/22 10:57:00;;;;;;;;;;;19.80;59.30;;;;;;4446403;32;19970;-72
2022/12/22 10:59:25;;;;;;;;;;;19.80;59.40;;;;;;4446146;32;20060;-71
2022/12/22 11:01:51;;;;;;;;;;;19.80;59.40;;;;;;4450880;32;19966;-70
2022/12/22 11:04:21;;;;;;;;;;;19.80;59.50;;;;;;4459262;32;19978;-71
2022/12/22 11:06:48;;;;;;;;;;;19.70;60.40;;;;;;4459470;32;20036;-71
2022/12/22 11:09:14;;;;;;;;;;;19.70;59.70;;;;;;4459854;32;19992;-71
2022/12/22 11:11:42;;;;;;;;;;;19.60;59.70;;;;;;4459935;32;19982;-71
2022/12/22 11:14:08;;;;;;;;;;;19.60;59.90;;;;;;4458342;32;20029;-71
2022/12/22 11:16:34;;;;;;;;;;;19.50;60.00;;;;;;4456872;32;19971;-71
2022/12/22 11:19:12;;;;;;;;;;;19.50;60.10;;;;;;4459007;32;20431;-71
2022/12/22 11:21:49;;;;;;;;;;;19.50;60.20;;;;;;4444034;32;20171;-71
2022/12/22 11:24:38;;;;;;;;;;;19.50;60.20;;;;;;4458368;32;19982;-71
2022/12/22 11:27:23;;;;;;;;;;;19.50;60.20;;;;;;4457377;32;19989;-71
2022/12/22 11:29:49;;;;;;;;;;;19.60;60.20;;;;;;4458809;32;20013;-71
2022/12/22 11:32:22;;;;;;;;;;;19.70;60.10;;;;;;4458447;32;20179;-71
2022/12/22 11:34:50;;;;;;;;;;;19.70;60.00;;;;;;4459723;32;19990;-71
2022/12/22 11:37:25;;;;;;;;;;;19.80;59.90;;;;;;4457211;32;19988;-71
2022/12/22 11:40:10;;;;;;;;;;;19.80;59.70;;;;;;4459202;32;20131;-71
2022/12/22 11:42:36;;;;;;;;;;;19.90;59.80;;;;;;4458746;32;20042;-71
2022/12/22 11:45:21;;;;;;;;;;;19.90;59.70;;;;;;4459778;32;19992;-70
2022/12/22 11:47:56;;;;;;;;;;;19.90;59.80;;;;;;4458039;32;20367;-71
2022/12/22 11:50:42;;;;;;;;;;;19.90;59.80;;;;;;4444330;32;20032;-71
2022/12/22 11:53:28;;;;;;;;;;;19.90;59.90;;;;;;4456717;32;19988;-72
2022/12/22 11:56:12;;;;;;;;;;;19.90;59.80;;;;;;4443008;32;20117;-71
2022/12/22 11:58:57;;;;;;;;;;;19.90;59.90;;;;;;4452059;32;20026;-71
2022/12/22 12:01:28;;;;;;;;;;;19.90;59.90;;;;;;4451548;32;20064;-71
2022/12/22 12:04:15;;;;;;;;;;;20.00;60.00;;;;;;4453190;32;20296;-71
2022/12/22 12:06:56;;;;;;;;;;;19.90;60.00;;;;;;4450305;32;19970;-72
2022/12/22 12:09:40;;;;;;;;;;;20.00;60.10;;;;;;4450010;32;20323;-72
2022/12/22 12:12:21;;;;;;;;;;;20.00;60.10;;;;;;4460445;32;20153;-72
2022/12/22 12:14:53;;;;;;;;;;;20.00;60.10;;;;;;4452987;32;19981;-71
2022/12/22 12:17:32;;;;;;;;;;;20.00;60.20;;;;;;4443695;32;20319;-72
2022/12/22 12:20:19;;;;;;;;;;;20.00;60.20;;;;;;4452149;32;20077;-71
2022/12/22 12:22:57;;;;;;;;;;;20.00;60.20;;;;;;4453931;32;19970;-72
2022/12/22 12:25:29;;;;;;;;;;;20.00;60.30;;;;;;4458119;32;20336;-72
2022/12/22 12:28:08;;;;;;;;;;;20.00;60.30;;;;;;4458806;32;19994;-72
2022/12/22 12:30:56;;;;;;;;;;;20.00;60.40;;;;;;4447325;32;20037;-73
2022/12/22 12:33:42;;;;;;;;;;;20.00;60.40;;;;;;4458383;32;20136;-72
2022/12/22 12:36:26;;;;;;;;;;;20.00;60.40;;;;;;4458369;32;20057;-72
2022/12/22 12:39:10;;;;;;;;;;;20.00;60.40;;;;;;4458425;32;20108;-72
2022/12/22 12:41:44;;;;;;;;;;;20.00;60.40;;;;;;4459297;32;20398;-72
2022/12/22 12:44:11;;;;;;;;;;;20.00;60.40;;;;;;4460262;32;19989;-72
2022/12/22 12:46:49;;;;;;;;;;;20.00;60.30;;;;;;4458749;32;19993;-72
2022/12/22 12:49:33;;;;;;;;;;;20.00;61.10;;;;;;4459407;32;19982;-72
2022/12/22 12:52:03;;;;;;;;;;;19.90;60.20;;;;;;4461273;32;19990;-68
2022/12/22 12:54:28;;;;;;;;;;;19.90;60.10;;;;;;4460203;32;20033;-72
2022/12/22 12:56:59;;;;;;;;;;;19.90;60.90;;;;;;4461742;32;19966;-72
2022/12/22 12:59:40;;;;;;;;;;;19.90;60.10;;;;;;4462000;32;20051;-72
2022/12/22 13:02:25;;;;;;;;;;;19.90;60.00;;;;;;4460499;32;20055;-71
2022/12/22 13:05:06;;;;;;;;;;;19.90;60.00;;;;;;4458842;32;20408;-72
2022/12/22 13:07:51;;;;;;;;;;;19.90;60.00;;;;;;4460170;32;20819;-72
2022/12/22 13:10:20;;;;;;;;;;;19.90;60.00;;;;;;4459141;32;19978;-71
2022/12/22 13:12:50;;;;;;;;;;;19.90;60.00;;;;;;4461081;32;20018;-72
2022/12/22 13:15:30;;;;;;;;;;;20.00;60.00;;;;;;4459740;32;19978;-71
2022/12/22 13:17:56;;;;;;;;;;;20.00;59.90;;;;;;4445411;32;19988;-72
2022/12/22 13:20:33;;;;;;;;;;;20.00;59.90;;;;;;4458790;32;19986;-72
2022/12/22 13:23:00;;;;;;;;;;;20.00;59.80;;;;;;4460437;32;20102;-71
2022/12/22 13:25:35;;;;;;;;;;;20.00;59.80;;;;;;4459931;32;20163;-72
2022/12/22 13:28:02;;;;;;;;;;;20.00;59.80;;;;;;4461183;32;20416;-71
2022/12/22 13:30:29;;;;;;;;;;;20.00;59.70;;;;;;4460764;32;19978;-72
2022/12/22 13:33:01;;;;;;;;;;;20.00;59.80;;;;;;4461795;32;20486;-72
2022/12/22 13:35:37;;;;;;;;;;;20.00;59.80;;;;;;4458793;32;20116;-72
2022/12/22 13:38:04;;;;;;;;;;;20.00;59.80;;;;;;4459938;32;19994;-72
2022/12/22 13:40:39;;;;;;;;;;;20.00;59.80;;;;;;4460787;32;20171;-72
2022/12/22 13:43:12;;;;;;;;;;;20.00;59.80;;;;;;4461670;32;19982;-72
2022/12/22 13:45:43;;;;;;;;;;;20.00;59.80;;;;;;4458890;32;20124;-72
2022/12/22 13:48:31;;;;;;;;;;;20.00;59.80;;;;;;4459453;32;20029;-72
2022/12/22 13:50:58;;;;;;;;;;;20.00;59.80;;;;;;4456869;32;19978;-72
2022/12/22 13:53:24;;;;;;;;;;;20.00;59.80;;;;;;4460012;32;20008;-72
2022/12/22 13:55:50;;;;;;;;;;;20.00;59.90;;;;;;4460063;32;20319;-72
2022/12/22 13:58:28;;;;;;;;;;;20.00;59.80;;;;;;4456700;32;19974;-72
2022/12/22 14:01:01;;;;;;;;;;;20.00;59.80;;;;;;4458583;32;20055;-71
2022/12/22 14:03:26;;;;;;;;;;;20.00;59.80;;;;;;4459637;32;19985;-71
2022/12/22 14:05:52;;;;;;;;;;;20.00;59.80;;;;;;4459047;32;19980;-70
2022/12/22 14:08:21;;;;;;;;;;;20.00;59.80;;;;;;4457556;32;20022;-70
2022/12/22 14:10:50;;;;;;;;;;;20.00;59.90;;;;;;4459762;32;20147;-71
2022/12/22 14:13:22;;;;;;;;;;;20.00;59.90;;;;;;4458798;32;20109;-71
2022/12/22 14:15:57;;;;;;;;;;;20.10;59.90;;;;;;4460460;32;19975;-71
2022/12/22 14:18:37;;;;;;;;;;;20.10;60.00;;;;;;4460110;32;20056;-72
2022/12/22 14:21:06;;;;;;;;;;;20.10;60.00;;;;;;4460986;32;20112;-72
2022/12/22 14:23:33;;;;;;;;;;;20.10;59.90;;;;;;4456823;32;19988;-72
2022/12/22 14:26:02;;;;;;;;;;;20.10;59.90;;;;;;4459274;32;20032;-72
2022/12/22 14:28:32;;;;;;;;;;;20.10;59.90;;;;;;4457189;32;20006;-72
2022/12/22 14:30:59;;;;;;;;;;;20.10;59.90;;;;;;4442535;32;20010;-73
2022/12/22 14:33:26;;;;;;;;;;;20.10;60.00;;;;;;4427684;32;19974;-72
2022/12/22 14:36:11;;;;;;;;;;;20.10;60.00;;;;;;4461001;32;20430;-72
2022/12/22 14:38:48;;;;;;;;;;;20.10;60.00;;;;;;4444274;32;20038;-72
2022/12/22 14:44:04;;;;;;;;;;;20.10;60.00;;;;;;4444166;32;20012;-72
2022/12/22 14:46:31;;;;;;;;;;;20.10;59.90;;;;;;4459260;32;19993;-72
2022/12/22 14:48:59;;;;;;;;;;;20.10;59.90;;;;;;4459262;32;20349;-72
2022/12/22 14:51:27;;;;;;;;;;;20.10;59.90;;;;;;4458005;32;19978;-72
2022/12/22 14:53:58;;;;;;;;;;;20.10;59.90;;;;;;4459140;32;19984;-72
2022/12/22 14:56:25;;;;;;;;;;;20.10;59.90;;;;;;4457415;32;20450;-73
2022/12/22 14:59:05;;;;;;;;;;;20.10;59.90;;;;;;4459449;32;19988;-72
2022/12/22 15:01:31;;;;;;;;;;;20.10;59.90;;;;;;4457555;32;20000;-72
2022/12/22 15:04:14;;;;;;;;;;;20.10;59.90;;;;;;4459100;32;19970;-70
2022/12/22 15:06:42;;;;;;;;;;;20.10;59.80;;;;;;4457365;32;20112;-73
2022/12/22 15:09:22;;;;;;;;;;;20.10;60.00;;;;;;4459455;32;19986;-73
2022/12/22 15:11:51;;;;;;;;;;;20.10;59.90;;;;;;4459430;32;19970;-72
2022/12/22 15:14:21;;;;;;;;;;;20.10;59.90;;;;;;4459337;32;19970;-70
2022/12/22 15:16:49;;;;;;;;;;;20.10;59.90;;;;;;4457843;32;19996;-75
2022/12/22 15:19:15;;;;;;;;;;;20.10;59.90;;;;;;4459522;32;20335;-76
2022/12/22 15:21:41;;;;;;;;;;;20.10;60.00;;;;;;4457575;32;19974;-76
2022/12/22 15:24:11;;;;;;;;;;;20.10;60.00;;;;;;4459038;32;19978;-76
2022/12/22 15:26:37;;;;;;;;;;;20.10;59.90;;;;;;4457924;32;19966;-76
2022/12/22 15:29:03;;;;;;;;;;;20.10;59.80;;;;;;4459189;32;20048;-74
2022/12/22 15:31:28;;;;;;;;;;;20.10;59.80;;;;;;4459349;32;20041;-75
2022/12/22 15:33:56;;;;;;;;;;;20.10;59.70;;;;;;4459022;32;19974;-75
2022/12/22 15:36:23;;;;;;;;;;;20.10;59.70;;;;;;4460855;32;19993;-75
2022/12/22 15:38:49;;;;;;;;;;;20.20;59.80;;;;;;4460781;32;19994;-75
2022/12/22 15:41:15;;;;;;;;;;;20.20;59.70;;;;;;4460205;32;19985;-75
2022/12/22 15:43:48;;;;;;;;;;;20.20;59.80;;;;;;4458442;32;20289;-77
2022/12/22 15:46:15;;;;;;;;;;;20.20;59.80;;;;;;4456708;32;20045;-72
2022/12/22 15:48:41;;;;;;;;;;;20.20;59.90;;;;;;4452002;32;19974;-72
2022/12/22 15:51:14;;;;;;;;;;;20.20;59.90;;;;;;4451155;32;19993;-72
2022/12/22 15:53:39;;;;;;;;;;;20.20;60.00;;;;;;4455226;32;20382;-73
2022/12/22 15:56:10;;;;;;;;;;;20.20;60.00;;;;;;4457441;32;20471;-71
2022/12/22 15:58:36;;;;;;;;;;;20.20;60.00;;;;;;4459069;32;20140;-71
2022/12/22 16:01:02;;;;;;;;;;;20.10;60.00;;;;;;4442830;32;19970;-71
2022/12/22 16:03:28;;;;;;;;;;;20.10;60.00;;;;;;4457775;32;19970;-72
2022/12/22 16:05:54;;;;;;;;;;;20.10;60.10;;;;;;4458467;32;20384;-72
2022/12/22 16:08:21;;;;;;;;;;;20.10;60.10;;;;;;4457951;32;19998;-72
2022/12/22 16:10:48;;;;;;;;;;;20.10;60.10;;;;;;4458901;32;20064;-71
2022/12/22 16:13:14;;;;;;;;;;;20.10;60.10;;;;;;4456952;32;20115;-71
2022/12/22 16:15:40;;;;;;;;;;;20.10;60.20;;;;;;4458807;32;19985;-71
2022/12/22 16:18:06;;;;;;;;;;;20.10;60.20;;;;;;4457578;32;19970;-72
2022/12/22 16:20:36;;;;;;;;;;;20.10;60.30;;;;;;4458793;32;20100;-72
2022/12/22 16:23:03;;;;;;;;;;;20.10;60.30;;;;;;4449227;32;19990;-73
2022/12/22 16:25:32;;;;;;;;;;;20.10;60.40;;;;;;4457573;32;20518;-73
2022/12/22 16:27:59;;;;;;;;;;;20.10;60.50;;;;;;4460572;32;19978;-73
2022/12/22 16:30:27;;;;;;;;;;;20.10;60.50;;;;;;4457252;32;19979;-73
2022/12/22 16:32:53;;;;;;;;;;;20.00;60.50;;;;;;4460645;32;20407;-72
2022/12/22 16:35:23;;;;;;;;;;;20.00;60.50;;;;;;4460177;32;20089;-73
2022/12/22 16:37:49;;;;;;;;;;;20.00;60.60;;;;;;4463543;32;20026;-72
2022/12/22 16:40:16;;;;;;;;;;;20.00;60.70;;;;;;4462420;32;20327;-73
2022/12/22 16:42:49;;;;;;;;;;;20.00;60.70;;;;;;4460557;32;19993;-73
2022/12/22 16:45:20;;;;;;;;;;;20.00;60.80;;;;;;4462106;32;20071;-72
2022/12/22 16:47:46;;;;;;;;;;;20.00;60.70;;;;;;4461567;32;19978;-73
2022/12/22 16:50:16;;;;;;;;;;;20.00;60.70;;;;;;4459797;32;20005;-73
2022/12/22 16:52:41;;;;;;;;;;;20.00;60.70;;;;;;4457907;32;20128;-73
2022/12/22 16:55:18;;;;;;;;;;;20.00;60.50;;;;;;4442656;32;19978;-73
2022/12/22 16:57:44;;;;;;;;;;;20.00;60.50;;;;;;4447323;32;20335;-72
2022/12/22 17:00:17;;;;;;;;;;;20.00;60.50;;;;;;4452045;32;20610;-73
2022/12/22 17:02:44;;;;;;;;;;;20.00;60.50;;;;;;4459625;32;20084;-73
2022/12/22 17:05:22;;;;;;;;;;;20.00;60.50;;;;;;4460386;32;20132;-72
2022/12/22 17:07:48;;;;;;;;;;;20.00;60.50;;;;;;4459500;32;19985;-73
2022/12/22 17:10:14;;;;;;;;;;;20.00;60.50;;;;;;4461160;32;20041;-72
2022/12/22 17:12:40;;;;;;;;;;;20.00;60.80;;;;;;4461807;32;20025;-72
2022/12/22 17:15:06;;;;;;;;;;;20.00;60.70;;;;;;4461782;32;19959;-73
2022/12/22 17:17:31;;;;;;;;;;;20.00;60.60;;;;;;4460139;32;20604;-73
2022/12/22 17:19:57;;;;;;;;;;;20.00;60.50;;;;;;4458559;32;20304;-73
2022/12/22 17:22:30;;;;;;;;;;;20.00;60.90;;;;;;4460743;32;19967;-73
2022/12/22 17:24:57;;;;;;;;;;;20.00;61.00;;;;;;4459250;32;19982;-73
2022/12/22 17:27:25;;;;;;;;;;;20.00;60.80;;;;;;4455705;32;19989;-72
2022/12/22 17:29:51;;;;;;;;;;;19.90;61.60;;;;;;4458866;32;19978;-73
2022/12/22 17:32:19;;;;;;;;;;;19.90;60.70;;;;;;4459795;32;19978;-73
2022/12/22 17:34:44;;;;;;;;;;;20.00;60.80;;;;;;4446608;32;20029;-72
2022/12/22 17:37:21;;;;;;;;;;;20.00;60.70;;;;;;4446305;32;19988;-73
2022/12/22 17:39:49;;;;;;;;;;;20.00;60.60;;;;;;4460716;32;20172;-73
2022/12/22 17:42:18;;;;;;;;;;;20.10;60.80;;;;;;4459414;32;19978;-72
2022/12/22 17:44:45;;;;;;;;;;;20.10;60.60;;;;;;4460460;32;20396;-72
2022/12/22 17:47:12;;;;;;;;;;;20.10;61.00;;;;;;4461274;32;19978;-73
2022/12/22 17:49:37;;;;;;;;;;;20.20;61.10;;;;;;4460305;32;19982;-73
2022/12/22 17:52:03;;;;;;;;;;;20.20;60.70;;;;;;4461452;32;19976;-73
2022/12/22 17:54:29;;;;;;;;;;;20.20;60.60;;;;;;4459891;32;20044;-73
2022/12/22 17:57:02;;;;;;;;;;;20.20;60.50;;;;;;4461569;32;19981;-71
2022/12/22 17:59:28;;;;;;;;;;;20.20;60.50;;;;;;4460743;32;19974;-73
2022/12/22 18:01:54;;;;;;;;;;;20.20;60.40;;;;;;4461658;32;19962;-73
2022/12/22 18:04:20;;;;;;;;;;;20.30;60.40;;;;;;4460754;32;20037;-74
2022/12/22 18:06:46;;;;;;;;;;;20.30;60.30;;;;;;4460361;32;20372;-73
2022/12/22 18:09:22;;;;;;;;;;;20.30;60.30;;;;;;4461270;32;20419;-74